Date,TemperatureHighF,TemperatureAvgF,TemperatureLowF,DewpointHighF,DewpointAvgF,DewpointLowF,HumidityHigh,HumidityAvg,HumidityLow,PressureMaxIn,PressureMinIn,WindSpeedMaxMPH,WindSpeedAvgMPH,GustSpeedMaxMPH,PrecipitationSumIn
2013-2-1,3.7,-4.2,-13.2,28.6,27.0,25.7,24,23,22,29.28,29.04,11,3,11,0.00
2013-2-2,12.2,5.9,-0.6,29.7,27.5,25.2,24,23,22,29.16,28.95,6,2,8,0.00
2013-2-3,14.2,9.8,3.2,28.0,27.0,25.7,24,23,23,29.04,28.95,17,4,17,0.00
2013-2-4,15.3,10.0,2.1,28.4,26.7,25.3,24,23,23,29.04,28.71,12,3,13,0.00
2013-2-5,29.1,21.5,8.4,28.4,27.3,25.7,24,23,23,29.04,28.63,17,3,17,0.00
2013-2-6,25.3,16.1,5.5,28.2,26.8,25.7,24,24,23,29.07,28.92,11,3,11,0.00
2013-2-7,27.7,25.3,23.5,29.1,26.8,25.7,25,24,23,29.22,28.98,12,5,14,0.00
2013-2-8,28.2,21.5,11.3,29.1,27.6,25.3,25,24,23,29.34,29.19,9,3,9,0.00
2013-2-9,32.4,28.8,23.2,28.9,27.8,26.1,25,25,24,29.19,28.92,15,5,17,0.00
2013-2-10,33.3,30.4,27.5,29.8,28.2,27.0,28,26,25,28.92,28.27,15,4,17,0.00
2013-2-11,30.2,25.2,16.9,30.9,28.9,27.1,28,26,25,29.01,28.33,0,0,0,0.00
2013-2-12,35.8,25.1,12.9,29.3,27.8,26.2,26,25,25,29.01,28.77,10,2,12,0.00
2013-2-13,41.5,30.6,21.6,30.0,28.5,27.9,26,25,25,28.77,28.57,11,2,11,0.00
2013-2-14,32.7,25.7,13.8,30.4,29.2,27.0,26,26,25,29.16,28.57,16,4,16,0.00
2013-2-15,18.9,11.3,4.6,29.3,27.9,25.9,26,25,24,29.28,29.16,17,5,17,0.00
2013-2-16,20.7,9.6,1.2,29.7,27.7,25.3,25,24,23,29.22,29.10,6,1,6,0.00
2013-2-17,32.4,21.5,6.6,28.6,27.1,25.3,25,24,24,29.10,28.63,14,4,14,0.00
2013-2-18,33.3,23.7,9.1,28.9,27.4,25.5,25,24,24,28.77,28.51,22,6,25,0.00
2013-2-19,10.0,5.7,1.0,27.7,25.5,23.7,25,24,24,29.34,28.77,22,8,26,0.00
2013-2-20,17.6,5.9,-4.5,27.1,25.7,24.6,25,24,23,29.42,29.34,8,3,8,0.00
2013-2-21,22.5,14.1,1.8,26.8,26.0,25.0,24,24,23,29.42,29.07,11,3,11,0.00
2013-2-22,28.9,23.5,20.1,27.7,26.4,25.9,25,24,24,29.10,28.83,11,3,11,0.00
2013-2-23,35.2,25.6,18.1,28.9,27.5,25.3,26,24,24,28.92,28.80,8,3,8,0.00
2013-2-24,37.9,24.1,10.0,28.6,27.7,26.2,26,25,25,29.07,28.92,8,1,8,0.00
2013-2-25,39.2,28.5,19.4,28.9,27.9,26.8,26,25,25,29.10,29.01,6,1,6,0.00
2013-2-26,36.7,26.7,14.9,28.8,27.7,27.0,26,25,25,29.04,28.86,15,3,15,0.00
2013-2-27,39.6,32.0,27.9,29.3,27.5,26.2,26,25,25,29.01,28.86,17,5,18,0.00
2013-2-28,30.7,28.3,23.5,31.6,28.3,26.8,29,26,25,29.22,29.01,12,4,12,0.00